메인 페이지
METAR-TAF:

METAR-TAF

공항 :

롱위에아르뷔엔, 노르웨이

위도: 78-15N, 경도: 015-28E, 고도: 2m

현재 날씨관측

예보는 1 시간 32분 전, 04:20시(UTC)에 발표되었습니다.
무풍
온도 -6°C
습도 86%
기압 1030 hPa
시정 10km 이상
고도 1200ft 상공 구름 조금
고도 2500ft 상공 구름 많음
약한눈

METAR: ENSB 200420Z 00000KT 9999 -SN FEW012 BKN025 M06/M08 Q1030 RMK WIND 1400FT 07004KT

시각: 06:52 (05:52 UTC)

예보

예보 대상 시간: 20일 00시부터 20일 24시까지 (UTC)
동남동8kt
시정 10km 이상
고도 800ft 상공 구름 조금
고도 2000ft 상공 구름 보통
일시적
20일 00시부터 20일 06시까지 (UTC)
서남서10kt
일시적
20일 00시부터 20일 12시까지 (UTC)
시정: 2000m
고도 800ft 상공
소낙눈
일시적
20일 18시부터 20일 24시까지 (UTC)
동남동18kt

TAF: ENSB 2000/2024 12008KT 9999 FEW008 SCT020 TEMPO 2000/2006 24010KT TEMPO 2000/2012 2000 SHSN VV008 TEMPO 2018/2024 12018KT

4,000개 이상의 공항 관측 자료 및 예보 (METAR 및 TAF 보고).

지도상에서 검색 가능한 기상관측소가 노란 점과 빨간 점으로 표시되어 있습니다.

기상관측소 명을 보려면 표시 위로 마우스를 이동하세요.

날씨 관측과 예보를 보려면 클릭하세요.

지도 변경 : 확대하려면 엑스 표시가 있는 녹색 버튼, 축소하려면 빼기 표시가 있는 녹색 버튼, 다음 페이지의 지도를 보려면 녹색 화살표를 클릭하세요.


METAR-TAF: